sensor_id;sensor_type;location;lat;lon;timestamp;P1;P2;P0
82287;PMS5003;71888;52.476;-1.888;2023-12-07T18:44:30;5;5;
82287;PMS5003;71888;52.476;-1.888;2023-12-07T18:47:00;7;7;
82287;PMS5003;71888;52.476;-1.888;2023-12-07T18:49:33;9;6;
82287;PMS5003;71888;52.476;-1.888;2023-12-07T18:52:02;8;6;
82287;PMS5003;71888;52.476;-1.888;2023-12-07T18:54:32;8;7;
82287;PMS5003;71888;52.476;-1.888;2023-12-07T18:57:05;8;7;
82287;PMS5003;71888;52.476;-1.888;2023-12-07T18:59:35;8;7;
82287;PMS5003;71888;52.476;-1.888;2023-12-07T19:02:05;8;7;
82287;PMS5003;71888;52.476;-1.888;2023-12-07T19:04:34;7;7;
82287;PMS5003;71888;52.476;-1.888;2023-12-07T19:07:03;7;6;
82287;PMS5003;71888;52.476;-1.888;2023-12-07T19:09:34;7;7;
82287;PMS5003;71888;52.476;-1.888;2023-12-07T19:12:06;9;9;
82287;PMS5003;71888;52.476;-1.888;2023-12-07T19:14:38;9;9;
82287;PMS5003;71888;52.476;-1.888;2023-12-07T19:17:08;6;6;
82287;PMS5003;71888;52.476;-1.888;2023-12-07T19:19:37;8;8;
82287;PMS5003;71888;52.476;-1.888;2023-12-07T19:22:05;8;8;
82287;PMS5003;71888;52.476;-1.888;2023-12-07T19:24:35;7;7;
82287;PMS5003;71888;52.476;-1.888;2023-12-07T19:27:07;8;8;
82287;PMS5003;71888;52.476;-1.888;2023-12-07T19:29:40;7;7;
82287;PMS5003;71888;52.476;-1.888;2023-12-07T19:32:09;5;5;
82287;PMS5003;71888;52.476;-1.888;2023-12-07T19:34:39;8;8;
82287;PMS5003;71888;52.476;-1.888;2023-12-07T19:37:09;9;8;
82287;PMS5003;71888;52.476;-1.888;2023-12-07T19:39:38;7;7;
82287;PMS5003;71888;52.476;-1.888;2023-12-07T19:42:09;8;8;
82287;PMS5003;71888;52.476;-1.888;2023-12-07T19:44:43;9;9;
82287;PMS5003;71888;52.476;-1.888;2023-12-07T19:47:12;13;13;
82287;PMS5003;71888;52.476;-1.888;2023-12-07T19:49:42;12;12;
82287;PMS5003;71888;52.476;-1.888;2023-12-07T19:52:11;9;9;
82287;PMS5003;71888;52.476;-1.888;2023-12-07T19:54:42;9;9;
82287;PMS5003;71888;52.476;-1.888;2023-12-07T19:57:13;11;11;
82287;PMS5003;71888;52.476;-1.888;2023-12-07T19:59:44;10;10;
82287;PMS5003;71888;52.476;-1.888;2023-12-07T20:02:13;11;11;
82287;PMS5003;71888;52.476;-1.888;2023-12-07T20:04:42;10;10;
82287;PMS5003;71888;52.476;-1.888;2023-12-07T20:07:11;10;10;
82287;PMS5003;71888;52.476;-1.888;2023-12-07T20:09:41;9;9;
82287;PMS5003;71888;52.476;-1.888;2023-12-07T20:12:13;10;10;
82287;PMS5003;71888;52.476;-1.888;2023-12-07T20:14:45;10;10;
82287;PMS5003;71888;52.476;-1.888;2023-12-07T20:17:15;12;12;
82287;PMS5003;71888;52.476;-1.888;2023-12-07T20:19:44;14;13;
82287;PMS5003;71888;52.476;-1.888;2023-12-07T20:22:14;16;15;
82287;PMS5003;71888;52.476;-1.888;2023-12-07T20:24:46;17;16;
82287;PMS5003;71888;52.476;-1.888;2023-12-07T20:27:20;16;16;
82287;PMS5003;71888;52.476;-1.888;2023-12-07T20:29:49;13;13;
82287;PMS5003;71888;52.476;-1.888;2023-12-07T20:32:19;23;23;
82287;PMS5003;71888;52.476;-1.888;2023-12-07T20:34:50;13;13;
82287;PMS5003;71888;52.476;-1.888;2023-12-07T20:37:21;15;14;
82287;PMS5003;71888;52.476;-1.888;2023-12-07T20:39:53;16;15;
82287;PMS5003;71888;52.476;-1.888;2023-12-07T20:42:26;15;15;
82287;PMS5003;71888;52.476;-1.888;2023-12-07T20:44:55;19;19;
82287;PMS5003;71888;52.476;-1.888;2023-12-07T20:47:24;18;18;
82287;PMS5003;71888;52.476;-1.888;2023-12-07T20:49:54;17;17;
82287;PMS5003;71888;52.476;-1.888;2023-12-07T20:52:27;16;16;
82287;PMS5003;71888;52.476;-1.888;2023-12-07T20:54:59;16;15;
82287;PMS5003;71888;52.476;-1.888;2023-12-07T20:57:28;22;22;
82287;PMS5003;71888;52.476;-1.888;2023-12-07T20:59:57;19;19;
82287;PMS5003;71888;52.476;-1.888;2023-12-07T21:02:26;19;19;
82287;PMS5003;71888;52.476;-1.888;2023-12-07T21:04:56;19;19;
82287;PMS5003;71888;52.476;-1.888;2023-12-07T21:07:27;19;18;
82287;PMS5003;71888;52.476;-1.888;2023-12-07T21:10:00;20;19;
82287;PMS5003;71888;52.476;-1.888;2023-12-07T21:12:29;26;26;
82287;PMS5003;71888;52.476;-1.888;2023-12-07T21:14:59;21;19;
82287;PMS5003;71888;52.476;-1.888;2023-12-07T21:17:28;18;18;
82287;PMS5003;71888;52.476;-1.888;2023-12-07T21:19:58;19;19;
82287;PMS5003;71888;52.476;-1.888;2023-12-07T21:22:31;20;19;
82287;PMS5003;71888;52.476;-1.888;2023-12-07T21:25:03;20;19;
82287;PMS5003;71888;52.476;-1.888;2023-12-07T21:27:32;19;18;
82287;PMS5003;71888;52.476;-1.888;2023-12-07T21:30:03;19;18;
82287;PMS5003;71888;52.476;-1.888;2023-12-07T21:32:34;29;26;
82287;PMS5003;71888;52.476;-1.888;2023-12-07T21:35:06;22;22;
82287;PMS5003;71888;52.476;-1.888;2023-12-07T21:37:39;20;19;
82287;PMS5003;71888;52.476;-1.888;2023-12-07T21:40:09;26;26;
82287;PMS5003;71888;52.476;-1.888;2023-12-07T21:42:39;19;19;
82287;PMS5003;71888;52.476;-1.888;2023-12-07T21:45:09;22;22;
82287;PMS5003;71888;52.476;-1.888;2023-12-07T21:47:38;23;22;
82287;PMS5003;71888;52.476;-1.888;2023-12-07T21:50:09;24;24;
82287;PMS5003;71888;52.476;-1.888;2023-12-07T21:52:41;22;22;
82287;PMS5003;71888;52.476;-1.888;2023-12-07T21:55:10;24;24;
82287;PMS5003;71888;52.476;-1.888;2023-12-07T21:57:39;30;29;
82287;PMS5003;71888;52.476;-1.888;2023-12-07T22:00:09;23;23;
82287;PMS5003;71888;52.476;-1.888;2023-12-07T22:02:39;27;26;
82287;PMS5003;71888;52.476;-1.888;2023-12-07T22:05:11;29;28;
82287;PMS5003;71888;52.476;-1.888;2023-12-07T22:07:40;29;28;
82287;PMS5003;71888;52.476;-1.888;2023-12-07T22:10:10;23;23;
82287;PMS5003;71888;52.476;-1.888;2023-12-07T22:12:39;30;29;
82287;PMS5003;71888;52.476;-1.888;2023-12-07T22:15:10;27;27;
82287;PMS5003;71888;52.476;-1.888;2023-12-07T22:17:41;25;24;
82287;PMS5003;71888;52.476;-1.888;2023-12-07T22:20:11;31;31;
82287;PMS5003;71888;52.476;-1.888;2023-12-07T22:22:44;29;28;
82287;PMS5003;71888;52.476;-1.888;2023-12-07T22:25:15;24;24;
82287;PMS5003;71888;52.476;-1.888;2023-12-07T22:27:46;24;23;
82287;PMS5003;71888;52.476;-1.888;2023-12-07T22:30:16;28;28;
82287;PMS5003;71888;52.476;-1.888;2023-12-07T22:32:47;22;22;
82287;PMS5003;71888;52.476;-1.888;2023-12-07T22:35:21;23;23;
82287;PMS5003;71888;52.476;-1.888;2023-12-07T22:37:50;22;21;
82287;PMS5003;71888;52.476;-1.888;2023-12-07T22:40:20;23;23;
82287;PMS5003;71888;52.476;-1.888;2023-12-07T22:42:49;25;25;
82287;PMS5003;71888;52.476;-1.888;2023-12-07T22:45:19;20;20;
82287;PMS5003;71888;52.476;-1.888;2023-12-07T22:47:50;25;24;
82287;PMS5003;71888;52.476;-1.888;2023-12-07T22:50:22;28;25;
82287;PMS5003;71888;52.476;-1.888;2023-12-07T22:52:51;29;28;
82287;PMS5003;71888;52.476;-1.888;2023-12-07T22:55:20;30;30;
82287;PMS5003;71888;52.476;-1.888;2023-12-07T22:57:49;27;24;
82287;PMS5003;71888;52.476;-1.888;2023-12-07T23:00:20;29;28;
82287;PMS5003;71888;52.476;-1.888;2023-12-07T23:02:50;29;29;
82287;PMS5003;71888;52.476;-1.888;2023-12-07T23:05:19;33;33;
82287;PMS5003;71888;52.476;-1.888;2023-12-07T23:07:49;31;31;
82287;PMS5003;71888;52.476;-1.888;2023-12-07T23:10:18;33;33;
82287;PMS5003;71888;52.476;-1.888;2023-12-07T23:12:48;30;28;
82287;PMS5003;71888;52.476;-1.888;2023-12-07T23:15:18;42;37;
82287;PMS5003;71888;52.476;-1.888;2023-12-07T23:17:49;26;22;
82287;PMS5003;71888;52.476;-1.888;2023-12-07T23:20:22;35;33;
82287;PMS5003;71888;52.476;-1.888;2023-12-07T23:22:51;28;28;
82287;PMS5003;71888;52.476;-1.888;2023-12-07T23:25:21;30;28;
82287;PMS5003;71888;52.476;-1.888;2023-12-07T23:27:50;32;31;
82287;PMS5003;71888;52.476;-1.888;2023-12-07T23:30:22;25;25;
82287;PMS5003;71888;52.476;-1.888;2023-12-07T23:32:55;32;25;
82287;PMS5003;71888;52.476;-1.888;2023-12-07T23:35:24;34;33;
82287;PMS5003;71888;52.476;-1.888;2023-12-07T23:37:54;28;26;
82287;PMS5003;71888;52.476;-1.888;2023-12-07T23:40:23;24;23;
82287;PMS5003;71888;52.476;-1.888;2023-12-07T23:42:53;26;26;
82287;PMS5003;71888;52.476;-1.888;2023-12-07T23:45:23;20;19;
82287;PMS5003;71888;52.476;-1.888;2023-12-07T23:47:54;24;23;
82287;PMS5003;71888;52.476;-1.888;2023-12-07T23:50:23;22;21;
82287;PMS5003;71888;52.476;-1.888;2023-12-07T23:52:52;31;30;
82287;PMS5003;71888;52.476;-1.888;2023-12-07T23:55:21;28;26;
82287;PMS5003;71888;52.476;-1.888;2023-12-07T23:57:51;28;26;
